Terminal Aerodrome Forecast
Issued by NWS Pueblo, CO

Home | Current Version | Previous Version | Text Only | Print | Product List | Glossary On
Versions: 1 2 3 4 5 6 7 8 9 10 11 12 13 14 15 16 17 18 19 20 21 22 23 24 25 26 27 28 29 30 31 32
000
FTUS45 KPUB 291733
TAFCOS
TAF
KCOS 291733Z 2918/3018 32007KT 1SM -SN BR FEW003 OVC010
      TEMPO 2918/2922 1/4SM SN FG OVC003
     FM292200 35010KT 1SM -SHSN SCT004 BKN008
     FM300500 34008KT P6SM VCSH SCT005 BKN010
     FM300900 35010KT P6SM FEW005 BKN020=

USA.gov is the U.S. government's official web portal to all federal, state and local government web resources and services.